WEATHER/FLIGHT PLANNING

Hattiesburg Radar

 

 

 

 

Weather Links

Flight Planning Links

 

METAR

2018/07/21 10:53 KHBG 211053Z AUTO 30005KT 10SM CLR 26/24 A2995 RMK AO2 SLP138 T02610244 TSNO

TAF

2018/07/21 12:22 TAF KHBG 211120Z 2112/2212 29003KT P6SM FEW040 FM211300 27006KT P6SM VCSH SCT250 FM211600 26008KT P6SM VCTS SCT050CB FM211800 25012G18KT P6SM SCT050 FM220000 25006KT 6SM HZ BR SKC FM220600 22004KT 6SM BR SKC